createdAt,value
2022-08-07T00:01:44.491Z,57.00
2022-08-07T00:04:09.599Z,57.39
2022-08-07T00:06:45.552Z,57.77
2022-08-07T00:09:21.253Z,57.45
2022-08-07T00:11:55.877Z,57.99
2022-08-07T00:14:30.107Z,57.21
2022-08-07T00:17:01.658Z,57.44
2022-08-07T00:19:59.917Z,58.48
2022-08-07T00:22:24.953Z,57.22
2022-08-07T00:25:07.359Z,56.78
2022-08-07T00:27:53.141Z,57.22
2022-08-07T00:30:21.707Z,57.60
2022-08-07T00:32:55.550Z,58.33
2022-08-07T00:35:23.077Z,57.84
2022-08-07T00:37:50.783Z,57.78
2022-08-07T00:40:39.704Z,57.20
2022-08-07T00:43:09.740Z,57.05
2022-08-07T00:45:42.178Z,57.82
2022-08-07T00:48:13.429Z,58.39
2022-08-07T00:50:43.891Z,57.92
2022-08-07T00:53:13.105Z,58.88
2022-08-07T00:56:02.231Z,59.74
2022-08-07T00:58:26.615Z,58.47
2022-08-07T01:00:53.716Z,59.21
2022-08-07T01:03:25.486Z,58.67
2022-08-07T01:21:26.262Z,60.07
2022-08-07T01:23:57.048Z,59.31
2022-08-07T01:26:26.014Z,59.73
2022-08-07T01:28:54.128Z,58.98
2022-08-07T01:31:27.795Z,60.34
2022-08-07T01:34:08.165Z,60.74
2022-08-07T01:36:40.632Z,60.60
2022-08-07T01:39:10.136Z,60.82
2022-08-07T01:41:40.757Z,61.12
2022-08-07T01:44:26.335Z,61.49
2022-08-07T01:46:53.446Z,61.31
2022-08-07T01:49:21.427Z,61.67
2022-08-07T01:52:03.611Z,60.64
2022-08-07T01:54:37.532Z,60.81
2022-08-07T01:57:24.928Z,61.01
2022-08-07T01:59:51.622Z,61.57
2022-08-07T02:02:32.482Z,61.15
2022-08-07T02:05:05.748Z,61.22
2022-08-07T02:07:49.949Z,61.01
2022-08-07T02:10:19.058Z,60.38
2022-08-07T02:12:50.283Z,60.95
2022-08-07T02:15:22.583Z,60.59
2022-08-07T02:17:51.676Z,61.54
2022-08-07T02:20:27.791Z,61.48
2022-08-07T02:23:00.104Z,61.69
2022-08-07T02:26:10.040Z,61.90
2022-08-07T02:28:25.496Z,61.62
2022-08-07T02:30:55.738Z,62.01
2022-08-07T02:33:33.000Z,62.09
2022-08-07T02:36:28.944Z,62.99
2022-08-07T02:39:16.331Z,63.49
2022-08-07T02:41:50.579Z,63.98
2022-08-07T02:44:18.878Z,64.53
2022-08-07T02:46:52.767Z,64.39
2022-08-07T02:49:28.733Z,64.41
2022-08-07T02:52:09.995Z,65.17
2022-08-07T02:54:42.901Z,65.16
2022-08-07T02:57:14.079Z,64.70
2022-08-07T02:59:54.962Z,64.43
2022-08-07T03:02:28.103Z,64.37
2022-08-07T03:04:56.422Z,64.61
2022-08-07T03:08:04.927Z,64.60
2022-08-07T03:10:11.917Z,65.39
2022-08-07T03:12:41.670Z,65.12
2022-08-07T03:15:09.414Z,64.69
2022-08-07T03:17:53.404Z,63.75
2022-08-07T03:20:22.094Z,63.51
2022-08-07T03:22:50.579Z,63.21
2022-08-07T03:25:21.150Z,63.20
2022-08-07T03:27:59.175Z,63.25
2022-08-07T03:30:35.772Z,63.13
2022-08-07T03:33:04.391Z,63.34
2022-08-07T03:35:38.011Z,63.25
2022-08-07T03:38:13.328Z,62.67
2022-08-07T03:40:40.372Z,62.81
2022-08-07T03:43:14.530Z,62.91
2022-08-07T03:45:43.599Z,62.09
2022-08-07T03:48:15.139Z,62.54
2022-08-07T03:50:51.993Z,63.04
2022-08-07T03:53:50.033Z,63.68
2022-08-07T03:56:11.108Z,63.26
2022-08-07T03:59:09.712Z,63.75
2022-08-07T04:01:30.247Z,64.12
2022-08-07T04:03:59.485Z,64.71
2022-08-07T04:06:37.739Z,64.92
2022-08-07T04:09:06.279Z,65.54
2022-08-07T04:12:26.800Z,65.45
2022-08-07T04:14:36.959Z,66.11
2022-08-07T04:17:04.975Z,66.18
2022-08-07T04:19:52.440Z,66.46
2022-08-07T04:22:28.816Z,66.01
2022-08-07T04:24:57.973Z,65.88
2022-08-07T04:27:26.451Z,66.35
2022-08-07T04:30:01.215Z,65.90
2022-08-07T04:32:34.987Z,65.13
2022-08-07T04:35:11.146Z,65.11
2022-08-07T04:38:00.795Z,65.01
2022-08-07T04:40:29.808Z,64.14
2022-08-07T04:43:02.070Z,63.76
2022-08-07T04:45:57.609Z,63.40
2022-08-07T04:48:25.599Z,62.78
2022-08-07T04:51:04.563Z,62.26
2022-08-07T04:54:05.193Z,62.04
2022-08-07T04:58:10.699Z,62.74
2022-08-07T05:00:18.685Z,62.17
2022-08-07T05:03:17.171Z,62.54
2022-08-07T05:06:20.020Z,61.49
2022-08-07T05:09:08.193Z,61.50
2022-08-07T05:11:57.159Z,61.08
2022-08-07T05:14:52.255Z,60.25
2022-08-07T05:18:00.937Z,60.81
2022-08-07T05:20:09.948Z,60.57
2022-08-07T05:22:39.525Z,60.94
2022-08-07T05:25:11.690Z,59.21
2022-08-07T05:28:03.450Z,58.76
2022-08-07T05:30:43.201Z,58.51
2022-08-07T05:33:15.011Z,57.92
2022-08-07T05:35:45.629Z,58.16
2022-08-07T05:39:01.077Z,57.04
2022-08-07T05:41:12.121Z,55.88
2022-08-07T05:43:50.237Z,55.26
2022-08-07T05:46:31.003Z,51.94
2022-08-07T05:48:59.376Z,49.81
2022-08-07T05:51:31.470Z,48.67
2022-08-07T05:54:13.457Z,47.84
2022-08-07T05:56:51.257Z,47.27
2022-08-07T05:59:21.114Z,45.79
2022-08-07T06:01:49.536Z,46.17
2022-08-07T06:04:19.766Z,47.05
2022-08-07T06:06:47.643Z,44.92
2022-08-07T06:09:56.604Z,43.93
2022-08-07T06:12:10.949Z,44.22
2022-08-07T06:14:43.153Z,42.68
2022-08-07T06:17:19.272Z,42.29
2022-08-07T06:20:03.659Z,41.60
2022-08-07T06:22:38.336Z,40.81
2022-08-07T06:25:06.493Z,40.23
2022-08-07T06:28:00.115Z,41.14
2022-08-07T06:30:32.173Z,42.09
2022-08-07T06:33:05.421Z,40.36
2022-08-07T06:35:47.998Z,39.88
2022-08-07T06:38:30.342Z,41.47
2022-08-07T06:41:01.034Z,41.50
2022-08-07T06:43:39.247Z,39.62
2022-08-07T06:46:12.509Z,38.72
2022-08-07T06:48:42.022Z,39.37
2022-08-07T06:51:31.279Z,38.77
2022-08-07T06:55:29.758Z,39.82
2022-08-07T06:56:51.461Z,38.70
2022-08-07T07:00:13.310Z,38.64
2022-08-07T07:02:48.152Z,39.17
2022-08-07T07:05:05.509Z,39.30
2022-08-07T07:08:00.330Z,39.50
2022-08-07T07:10:28.338Z,41.06
2022-08-07T07:13:00.223Z,39.44
2022-08-07T07:15:36.027Z,39.56
2022-08-07T07:18:13.957Z,38.50
2022-08-07T07:20:51.827Z,38.82
2022-08-07T07:24:09.555Z,39.80
2022-08-07T07:26:35.418Z,41.32
2022-08-07T07:29:38.425Z,41.61
2022-08-07T07:31:52.160Z,42.46
2022-08-07T07:34:29.375Z,42.24
2022-08-07T07:37:14.461Z,42.79
2022-08-07T07:39:54.408Z,42.53
2022-08-07T07:42:32.656Z,42.11
2022-08-07T07:45:02.521Z,41.78
2022-08-07T07:47:42.894Z,42.15
2022-08-07T07:50:33.579Z,41.73
2022-08-07T07:53:20.388Z,40.43
2022-08-07T07:56:00.583Z,40.52
2022-08-07T07:58:36.864Z,40.14
2022-08-07T08:02:02.856Z,39.54
2022-08-07T08:04:10.736Z,39.22
2022-08-07T08:06:50.895Z,39.79
2022-08-07T08:09:24.235Z,39.24
2022-08-07T08:12:02.986Z,38.28
2022-08-07T08:14:34.355Z,38.24
2022-08-07T08:17:55.842Z,38.50
2022-08-07T08:20:22.549Z,38.61
2022-08-07T08:23:03.268Z,38.34
2022-08-07T08:25:52.193Z,38.00
2022-08-07T08:28:38.648Z,37.94
2022-08-07T08:31:14.785Z,37.42
2022-08-07T08:33:49.758Z,37.08
2022-08-07T08:36:29.813Z,37.24
2022-08-07T08:39:01.884Z,37.17
2022-08-07T08:41:58.429Z,36.33
2022-08-07T08:44:54.474Z,35.80
2022-08-07T08:47:52.142Z,35.97
2022-08-07T08:50:39.254Z,35.47
2022-08-07T08:53:19.757Z,36.32
2022-08-07T08:55:58.614Z,35.46
2022-08-07T08:58:43.963Z,34.75
2022-08-07T09:01:15.361Z,34.86
2022-08-07T09:03:55.778Z,35.53
2022-08-07T09:06:29.303Z,35.85
2022-08-07T09:09:13.393Z,35.35
2022-08-07T09:12:30.667Z,35.42
2022-08-07T09:16:20.695Z,34.46
2022-08-07T09:18:23.561Z,34.97
2022-08-07T09:21:05.003Z,34.32
2022-08-07T09:24:34.199Z,34.32
2022-08-07T09:27:22.740Z,33.46
2022-08-07T09:30:08.989Z,33.50
2022-08-07T09:32:57.025Z,33.02
2022-08-07T09:36:04.670Z,33.37
2022-08-07T09:38:38.363Z,33.03
2022-08-07T09:41:17.657Z,32.63
2022-08-07T09:44:06.423Z,32.62
2022-08-07T09:47:57.741Z,33.17
2022-08-07T09:51:05.389Z,32.44
2022-08-07T09:53:59.353Z,32.06
2022-08-07T09:56:59.787Z,32.31
2022-08-07T10:00:01.825Z,31.95
2022-08-07T10:03:07.857Z,31.59
2022-08-07T10:06:01.325Z,31.77
2022-08-07T10:09:07.137Z,31.45
2022-08-07T10:12:00.403Z,31.30
2022-08-07T10:14:47.456Z,31.74
2022-08-07T10:18:01.312Z,31.97
2022-08-07T10:20:50.148Z,31.14
2022-08-07T10:24:05.252Z,30.88
2022-08-07T10:26:57.409Z,30.85
2022-08-07T10:29:53.152Z,31.45
2022-08-07T10:32:59.617Z,30.99
2022-08-07T10:35:55.289Z,30.95
2022-08-07T10:38:35.963Z,31.02
2022-08-07T10:41:52.310Z,30.85
2022-08-07T10:44:39.876Z,30.24
2022-08-07T10:47:54.114Z,29.97
2022-08-07T10:50:37.595Z,30.40
2022-08-07T10:53:28.119Z,30.54
2022-08-07T10:56:31.405Z,31.11
2022-08-07T10:59:30.386Z,30.38
2022-08-07T11:02:33.086Z,30.60
2022-08-07T11:05:25.517Z,30.51
2022-08-07T11:08:31.369Z,29.62
2022-08-07T11:11:35.925Z,29.18
2022-08-07T11:14:45.087Z,29.91
2022-08-07T11:17:08.856Z,29.21
2022-08-07T11:19:57.598Z,28.45
2022-08-07T11:22:45.904Z,28.79
2022-08-07T11:25:25.933Z,28.20
2022-08-07T11:28:06.192Z,28.76
2022-08-07T11:30:49.411Z,30.15
2022-08-07T11:34:00.385Z,29.15
2022-08-07T11:36:36.412Z,28.72
2022-08-07T11:39:19.796Z,29.64
2022-08-07T11:42:16.868Z,28.52
2022-08-07T11:44:57.848Z,29.79
2022-08-07T11:48:06.064Z,28.90
2022-08-07T11:50:59.492Z,28.19
2022-08-07T11:54:01.003Z,27.18
2022-08-07T11:56:52.299Z,27.48
2022-08-07T12:00:12.560Z,27.50
2022-08-07T12:02:56.543Z,26.10
2022-08-07T12:05:47.490Z,26.42
2022-08-07T12:08:38.206Z,26.47
2022-08-07T12:11:22.283Z,26.20
2022-08-07T12:14:01.548Z,27.10
2022-08-07T12:16:32.945Z,26.69
2022-08-07T12:19:56.531Z,26.98
2022-08-07T12:22:58.491Z,27.19
2022-08-07T12:26:30.012Z,27.18
2022-08-07T12:29:03.598Z,26.95
2022-08-07T12:32:12.569Z,26.80
2022-08-07T12:34:42.189Z,26.85
2022-08-07T12:37:23.573Z,26.48
2022-08-07T12:39:58.729Z,26.69
2022-08-07T12:42:28.605Z,26.21
2022-08-07T12:45:13.831Z,25.47
2022-08-07T12:48:02.528Z,25.66
2022-08-07T12:50:48.896Z,25.67
2022-08-07T12:53:22.408Z,25.29
2022-08-07T12:56:19.902Z,25.17
2022-08-07T12:58:53.233Z,25.77
2022-08-07T13:01:29.365Z,25.23
2022-08-07T13:04:48.975Z,25.25
2022-08-07T13:08:13.421Z,24.86
2022-08-07T13:10:51.743Z,24.61
2022-08-07T13:13:48.682Z,23.58
2022-08-07T13:16:27.239Z,24.71
2022-08-07T13:19:11.516Z,25.91
2022-08-07T13:22:32.678Z,25.70
2022-08-07T13:25:24.142Z,24.95
2022-08-07T13:28:11.525Z,25.11
2022-08-07T13:30:52.077Z,25.35
2022-08-07T13:34:34.251Z,24.61
2022-08-07T13:36:47.764Z,24.52
2022-08-07T13:40:33.721Z,24.61
2022-08-07T13:42:21.423Z,24.23
2022-08-07T13:45:11.561Z,23.87
2022-08-07T13:48:05.445Z,23.93
2022-08-07T13:50:33.011Z,23.38
2022-08-07T13:53:05.308Z,23.92
2022-08-07T13:55:34.141Z,24.30
2022-08-07T13:58:31.761Z,23.97
2022-08-07T14:01:11.282Z,23.81
2022-08-07T14:04:06.741Z,23.74
2022-08-07T14:06:43.751Z,23.13
2022-08-07T14:10:01.949Z,22.99
2022-08-07T14:12:13.711Z,24.06
2022-08-07T14:14:45.033Z,24.03
2022-08-07T14:18:13.156Z,23.91
2022-08-07T14:20:42.032Z,23.63
2022-08-07T14:23:14.507Z,23.26
2022-08-07T14:26:28.391Z,23.06
2022-08-07T14:29:08.527Z,22.94
2022-08-07T14:31:56.480Z,24.15
2022-08-07T14:34:30.024Z,23.86
2022-08-07T14:37:01.680Z,24.51
2022-08-07T14:40:16.272Z,23.82
2022-08-07T14:42:32.301Z,23.71
2022-08-07T14:45:20.816Z,23.12
2022-08-07T14:47:51.252Z,23.66
2022-08-07T14:50:22.600Z,23.88
2022-08-07T14:52:52.883Z,23.22
2022-08-07T14:55:21.645Z,23.85
2022-08-07T14:57:58.340Z,23.90
2022-08-07T15:00:31.770Z,24.22
2022-08-07T15:03:18.785Z,25.09
2022-08-07T15:05:54.709Z,24.89
2022-08-07T15:08:49.826Z,25.63
2022-08-07T15:11:53.095Z,24.92
2022-08-07T15:14:17.681Z,24.73
2022-08-07T15:16:54.448Z,25.46
2022-08-07T15:20:31.838Z,25.01
2022-08-07T15:22:18.291Z,25.00
2022-08-07T15:25:13.968Z,25.99
2022-08-07T15:30:36.633Z,25.66
2022-08-07T15:33:33.972Z,25.32
2022-08-07T15:36:06.228Z,25.09
2022-08-07T15:38:59.179Z,25.70
2022-08-07T15:44:17.339Z,25.08
2022-08-07T15:46:51.936Z,24.85
2022-08-07T15:50:05.325Z,25.80
2022-08-07T15:52:17.121Z,25.56
2022-08-07T15:54:49.553Z,26.03
2022-08-07T15:57:39.716Z,26.18
2022-08-07T16:00:31.637Z,26.40
2022-08-07T16:03:21.582Z,25.99
2022-08-07T16:05:56.279Z,25.87
2022-08-07T16:08:32.161Z,25.43
2022-08-07T16:11:29.261Z,26.11
2022-08-07T16:14:02.822Z,26.25
2022-08-07T16:16:56.913Z,26.87
2022-08-07T16:19:58.442Z,26.54
2022-08-07T16:23:05.271Z,26.53
2022-08-07T16:25:56.622Z,27.13
2022-08-07T16:30:07.483Z,27.28
2022-08-07T16:31:51.956Z,27.26
2022-08-07T16:34:24.147Z,26.94
2022-08-07T16:38:03.965Z,26.72
2022-08-07T16:40:34.141Z,26.57
2022-08-07T16:43:07.424Z,26.74
2022-08-07T16:46:33.141Z,26.64
2022-08-07T16:49:04.400Z,25.87
2022-08-07T16:52:01.371Z,26.47
2022-08-07T16:54:54.277Z,26.93
2022-08-07T16:58:00.654Z,27.32
2022-08-07T17:00:30.155Z,27.14
2022-08-07T17:03:19.341Z,27.33
2022-08-07T17:06:31.073Z,27.62
2022-08-07T17:09:15.793Z,27.51
2022-08-07T17:12:44.219Z,27.65
2022-08-07T17:15:15.729Z,27.97
2022-08-07T17:17:48.967Z,27.68
2022-08-07T17:20:46.687Z,27.81
2022-08-07T17:23:20.267Z,27.42
2022-08-07T17:26:02.387Z,27.43
2022-08-07T17:30:15.523Z,27.63
2022-08-07T17:32:30.511Z,28.18
2022-08-07T17:35:49.904Z,28.36
2022-08-07T17:38:32.067Z,28.81
2022-08-07T17:42:04.955Z,29.29
2022-08-07T17:44:14.189Z,28.49
2022-08-07T17:46:56.129Z,28.83
2022-08-07T17:49:30.584Z,29.21
2022-08-07T17:52:30.587Z,29.16
2022-08-07T17:55:09.403Z,28.79
2022-08-07T17:57:58.352Z,29.05
2022-08-07T18:00:34.078Z,28.97
2022-08-07T18:03:28.710Z,29.30
2022-08-07T18:06:16.598Z,29.66
2022-08-07T18:09:05.718Z,29.96
2022-08-07T18:12:06.851Z,29.86
2022-08-07T18:14:37.485Z,29.72
2022-08-07T18:18:44.715Z,30.23
2022-08-07T18:21:06.658Z,30.09
2022-08-07T18:23:05.852Z,30.48
2022-08-07T18:26:00.982Z,30.76
2022-08-07T18:28:58.491Z,30.55
2022-08-07T18:31:50.108Z,30.70
2022-08-07T18:34:53.113Z,30.96
2022-08-07T18:38:56.623Z,30.87
2022-08-07T18:41:08.637Z,31.14
2022-08-07T18:43:57.831Z,31.98
2022-08-07T18:46:42.899Z,31.81
2022-08-07T18:50:30.306Z,32.17
2022-08-07T18:52:51.660Z,32.52
2022-08-07T18:56:09.612Z,32.36
2022-08-07T18:58:51.842Z,32.33
2022-08-07T19:02:18.612Z,32.66
2022-08-07T19:05:15.022Z,33.20
2022-08-07T19:07:56.975Z,33.17
2022-08-07T19:10:51.454Z,33.44
2022-08-07T19:13:43.423Z,32.95
2022-08-07T19:17:04.275Z,33.89
2022-08-07T19:19:17.548Z,33.83
2022-08-07T19:22:05.151Z,33.04
2022-08-07T19:24:48.323Z,33.29
2022-08-07T19:28:29.693Z,33.76
2022-08-07T19:31:05.544Z,34.53
2022-08-07T19:33:12.981Z,34.56
2022-08-07T19:35:43.902Z,35.41
2022-08-07T19:38:16.044Z,35.18
2022-08-07T19:40:50.176Z,35.37
2022-08-07T19:43:48.661Z,35.47
2022-08-07T19:46:22.401Z,36.03
2022-08-07T19:49:00.002Z,36.42
2022-08-07T19:51:52.343Z,36.35
2022-08-07T19:54:29.655Z,36.89
2022-08-07T19:57:52.432Z,36.70
2022-08-07T19:59:58.286Z,36.96
2022-08-07T20:02:31.610Z,37.36
2022-08-07T20:05:01.852Z,37.65
2022-08-07T20:07:47.411Z,37.67
2022-08-07T20:10:52.026Z,37.50
2022-08-07T20:13:22.972Z,37.80
2022-08-07T20:15:53.884Z,38.18
2022-08-07T20:18:32.520Z,38.71
2022-08-07T20:21:03.063Z,38.84
2022-08-07T20:23:42.002Z,38.91
2022-08-07T20:26:20.401Z,38.90
2022-08-07T20:28:59.708Z,39.32
2022-08-07T20:31:28.877Z,39.85
2022-08-07T20:33:58.409Z,39.59
2022-08-07T20:36:28.395Z,40.12
2022-08-07T20:39:00.374Z,39.88
2022-08-07T20:41:38.313Z,40.50
2022-08-07T20:44:10.354Z,40.42
2022-08-07T20:46:44.064Z,40.88
2022-08-07T20:50:00.394Z,41.53
2022-08-07T20:52:09.339Z,40.88
2022-08-07T20:54:41.618Z,41.37
2022-08-07T20:57:13.169Z,41.59
2022-08-07T21:00:05.643Z,42.35
2022-08-07T21:02:53.998Z,42.21
2022-08-07T21:05:42.436Z,42.96
2022-08-07T21:08:14.707Z,43.14
2022-08-07T21:10:44.598Z,43.38
2022-08-07T21:13:24.414Z,43.38
2022-08-07T21:16:09.282Z,43.67
2022-08-07T21:18:41.144Z,44.20
2022-08-07T21:21:16.521Z,43.64
2022-08-07T21:24:11.700Z,44.00
2022-08-07T21:26:51.053Z,44.10
2022-08-07T21:29:30.355Z,44.84
2022-08-07T21:32:44.240Z,44.04
2022-08-07T21:35:01.649Z,44.59
2022-08-07T21:37:58.109Z,44.67
2022-08-07T21:40:38.417Z,45.60
2022-08-07T21:43:47.559Z,45.61
2022-08-07T21:46:24.475Z,45.57
2022-08-07T21:48:59.714Z,46.48
2022-08-07T21:51:31.975Z,46.47
2022-08-07T21:54:27.510Z,47.02
2022-08-07T21:57:44.474Z,46.87
2022-08-07T22:00:23.246Z,47.42
2022-08-07T22:03:03.572Z,46.66
2022-08-07T22:05:44.658Z,47.29
2022-08-07T22:08:18.857Z,48.59
2022-08-07T22:10:50.936Z,49.06
2022-08-07T22:13:24.691Z,48.23
2022-08-07T22:16:43.042Z,48.88
2022-08-07T22:19:32.822Z,49.42
2022-08-07T22:22:28.933Z,49.60
2022-08-07T22:25:08.331Z,49.84
2022-08-07T22:28:31.008Z,49.81
2022-08-07T22:31:56.242Z,49.61
2022-08-07T22:34:52.910Z,50.24
2022-08-07T22:38:05.382Z,49.64
2022-08-07T22:40:41.053Z,50.34
2022-08-07T22:43:11.689Z,49.30
2022-08-07T22:46:41.007Z,49.36
2022-08-07T22:48:58.977Z,49.90
2022-08-07T22:51:37.405Z,49.74
2022-08-07T22:55:14.896Z,49.66
2022-08-07T22:58:15.851Z,50.70
2022-08-07T23:01:05.532Z,50.43
2022-08-07T23:04:16.252Z,50.98
2022-08-07T23:06:51.732Z,50.40
2022-08-07T23:10:03.923Z,51.33
2022-08-07T23:13:04.900Z,51.58
2022-08-07T23:16:06.032Z,51.62
2022-08-07T23:18:35.314Z,51.84
2022-08-07T23:21:36.771Z,52.21
2022-08-07T23:24:45.694Z,51.16
2022-08-07T23:27:33.541Z,52.13
2022-08-07T23:30:39.252Z,51.75
2022-08-07T23:34:23.416Z,52.02
2022-08-07T23:37:19.531Z,52.58
2022-08-07T23:40:05.778Z,53.61
2022-08-07T23:42:45.916Z,53.87
2022-08-07T23:46:01.811Z,53.86
2022-08-07T23:48:28.806Z,53.80
2022-08-07T23:53:01.585Z,54.54
2022-08-07T23:54:28.422Z,54.98
2022-08-07T23:57:10.264Z,54.25
